createdAt,value
2019-02-19T00:01:48.339Z,23.70
2019-02-19T00:04:18.118Z,23.70
2019-02-19T00:06:47.999Z,23.70
2019-02-19T00:09:17.763Z,23.70
2019-02-19T00:11:47.558Z,23.70
2019-02-19T00:14:17.411Z,23.70
2019-02-19T00:16:48.647Z,23.70
2019-02-19T00:19:18.481Z,23.70
2019-02-19T00:21:48.367Z,23.60
2019-02-19T00:24:18.129Z,23.70
2019-02-19T00:26:47.970Z,23.60
2019-02-19T00:29:17.775Z,23.60
2019-02-19T00:31:49.554Z,23.60
2019-02-19T00:34:19.392Z,23.60
2019-02-19T00:36:49.228Z,23.70
2019-02-19T00:39:19.040Z,23.60
2019-02-19T00:41:48.834Z,23.60
2019-02-19T00:44:18.680Z,23.60
2019-02-19T00:46:48.462Z,23.60
2019-02-19T00:49:19.570Z,23.60
2019-02-19T00:51:49.340Z,23.60
2019-02-19T00:54:19.111Z,23.60
2019-02-19T00:56:48.912Z,23.60
2019-02-19T00:59:18.677Z,23.60
2019-02-19T01:01:48.471Z,23.60
2019-02-19T01:04:18.652Z,23.60
2019-02-19T01:06:48.883Z,23.60
2019-02-19T01:09:20.323Z,23.60
2019-02-19T01:11:50.122Z,23.60
2019-02-19T01:14:19.937Z,23.50
2019-02-19T01:16:49.759Z,23.50
2019-02-19T01:19:19.531Z,23.60
2019-02-19T01:21:49.367Z,23.60
2019-02-19T01:24:19.186Z,23.50
2019-02-19T01:26:48.991Z,23.60
2019-02-19T01:29:18.798Z,23.60
2019-02-19T01:31:49.407Z,23.60
2019-02-19T01:34:20.326Z,23.50
2019-02-19T01:36:50.102Z,23.50
2019-02-19T01:39:19.874Z,23.50
2019-02-19T01:41:49.691Z,23.50
2019-02-19T01:44:19.459Z,23.50
2019-02-19T01:46:49.231Z,23.50
2019-02-19T01:49:19.366Z,23.50
2019-02-19T01:51:50.425Z,23.50
2019-02-19T01:54:20.215Z,23.50
2019-02-19T01:56:49.978Z,23.50
2019-02-19T01:59:20.662Z,23.50
2019-02-19T02:01:51.611Z,23.50
2019-02-19T02:04:21.422Z,23.50
2019-02-19T02:06:51.195Z,23.50
2019-02-19T02:09:20.967Z,23.50
2019-02-19T02:11:50.759Z,23.40
2019-02-19T02:14:20.603Z,23.40
2019-02-19T02:16:50.362Z,23.40
2019-02-19T02:19:20.395Z,23.40
2019-02-19T02:21:50.196Z,23.40
2019-02-19T02:24:19.998Z,23.40
2019-02-19T02:26:49.791Z,23.40
2019-02-19T02:29:19.698Z,23.40
2019-02-19T02:31:50.783Z,23.40
2019-02-19T02:34:22.038Z,23.40
2019-02-19T02:36:51.810Z,23.40
2019-02-19T02:39:21.591Z,23.40
2019-02-19T02:41:51.353Z,23.40
2019-02-19T02:44:21.225Z,23.40
2019-02-19T02:46:51.123Z,23.40
2019-02-19T02:49:22.038Z,23.40
2019-02-19T02:51:52.319Z,23.40
2019-02-19T02:54:23.384Z,23.40
2019-02-19T02:56:53.498Z,23.40
2019-02-19T02:59:23.342Z,23.40
2019-02-19T03:01:53.175Z,23.40
2019-02-19T03:04:22.949Z,23.30
2019-02-19T03:07:15.924Z,23.30
2019-02-19T03:09:45.730Z,23.40
2019-02-19T03:12:15.506Z,23.30
2019-02-19T03:14:45.278Z,23.40
2019-02-19T03:17:15.043Z,23.40
2019-02-19T03:19:44.888Z,23.40
2019-02-19T03:22:14.728Z,23.40
2019-02-19T03:24:44.504Z,23.40
2019-02-19T03:27:14.289Z,23.30
2019-02-19T03:29:44.626Z,23.30
2019-02-19T03:32:14.570Z,23.30
2019-02-19T03:34:45.042Z,23.40
2019-02-19T03:37:14.820Z,23.30
2019-02-19T03:39:44.595Z,23.30
2019-02-19T03:42:14.551Z,23.30
2019-02-19T03:44:44.387Z,23.30
2019-02-19T03:47:14.165Z,23.30
2019-02-19T03:49:44.645Z,23.30
2019-02-19T03:52:15.491Z,23.30
2019-02-19T03:54:45.788Z,23.30
2019-02-19T03:57:15.946Z,23.30
2019-02-19T03:59:45.724Z,23.30
2019-02-19T04:02:15.574Z,23.30
2019-02-19T04:04:45.471Z,23.30
2019-02-19T04:07:15.237Z,23.30
2019-02-19T04:09:45.062Z,23.30
2019-02-19T04:12:14.830Z,23.30
2019-02-19T04:14:44.611Z,23.30
2019-02-19T04:17:14.403Z,23.30
2019-02-19T04:19:44.348Z,23.30
2019-02-19T04:22:14.118Z,23.30
2019-02-19T04:24:44.018Z,23.30
2019-02-19T04:27:13.786Z,23.30
2019-02-19T04:29:43.579Z,23.30
2019-02-19T04:32:14.835Z,23.30
2019-02-19T04:34:45.307Z,23.30
2019-02-19T04:37:16.085Z,23.30
2019-02-19T04:39:45.854Z,23.30
2019-02-19T04:42:15.634Z,23.30
2019-02-19T04:44:45.422Z,23.30
2019-02-19T04:47:15.199Z,23.30
2019-02-19T04:49:44.975Z,23.30
2019-02-19T04:52:14.772Z,23.30
2019-02-19T04:54:44.578Z,23.20
2019-02-19T04:57:14.351Z,23.30
2019-02-19T04:59:44.479Z,23.30
2019-02-19T05:02:14.266Z,23.30
2019-02-19T05:04:44.047Z,23.20
2019-02-19T05:07:13.848Z,23.30
2019-02-19T05:09:43.767Z,23.30
2019-02-19T05:12:13.562Z,23.30
2019-02-19T05:14:43.359Z,23.30
2019-02-19T05:17:13.145Z,23.30
2019-02-19T05:19:42.928Z,23.30
2019-02-19T05:22:13.136Z,23.20
2019-02-19T05:24:42.924Z,23.30
2019-02-19T05:27:12.709Z,23.30
2019-02-19T05:29:42.610Z,23.20
2019-02-19T05:32:13.731Z,23.20
2019-02-19T05:34:45.788Z,23.30
2019-02-19T05:37:15.642Z,23.30
2019-02-19T05:39:45.470Z,23.30
2019-02-19T05:42:15.282Z,23.30
2019-02-19T05:44:45.064Z,23.20
2019-02-19T05:47:14.858Z,23.30
2019-02-19T05:49:44.751Z,23.20
2019-02-19T05:52:14.587Z,23.30
2019-02-19T05:54:44.651Z,23.20
2019-02-19T05:57:14.814Z,23.20
2019-02-19T05:59:44.683Z,23.20
2019-02-19T06:02:14.465Z,23.20
2019-02-19T06:04:44.307Z,23.30
2019-02-19T06:07:14.134Z,23.20
2019-02-19T06:09:43.925Z,23.20
2019-02-19T06:12:13.766Z,23.20
2019-02-19T06:14:43.654Z,23.20
2019-02-19T06:17:13.474Z,23.20
2019-02-19T06:19:43.336Z,23.20
2019-02-19T06:22:13.145Z,23.20
2019-02-19T06:24:42.928Z,23.30
2019-02-19T06:27:12.792Z,23.30
2019-02-19T06:29:42.572Z,23.20
2019-02-19T06:32:13.146Z,23.30
2019-02-19T06:34:44.083Z,23.20
2019-02-19T06:37:13.973Z,23.30
2019-02-19T06:39:43.797Z,23.20
2019-02-19T06:42:13.611Z,23.20
2019-02-19T06:44:43.388Z,23.20
2019-02-19T06:47:13.215Z,23.20
2019-02-19T06:49:43.414Z,23.20
2019-02-19T06:52:13.247Z,23.20
2019-02-19T06:54:43.049Z,23.20
2019-02-19T06:57:12.937Z,23.20
2019-02-19T06:59:42.822Z,23.30
2019-02-19T07:02:25.182Z,23.20
2019-02-19T07:04:58.196Z,23.20
2019-02-19T07:07:28.383Z,23.20
2019-02-19T07:09:58.164Z,23.20
2019-02-19T07:12:27.952Z,23.30
2019-02-19T07:14:57.757Z,23.20
2019-02-19T07:17:27.659Z,23.30
2019-02-19T07:22:47.834Z,23.40
2019-02-19T07:25:22.743Z,23.30
2019-02-19T07:27:52.583Z,23.40
2019-02-19T07:30:22.466Z,23.40
2019-02-19T07:32:54.555Z,23.40
2019-02-19T07:35:25.822Z,23.40
2019-02-19T07:37:55.646Z,23.40
2019-02-19T07:40:25.502Z,23.40
2019-02-19T07:42:55.338Z,23.40
2019-02-19T07:45:25.142Z,23.50
2019-02-19T07:47:54.914Z,23.50
2019-02-19T07:50:25.109Z,23.50
2019-02-19T07:52:54.935Z,23.50
2019-02-19T07:55:24.795Z,23.50
2019-02-19T07:57:54.593Z,23.50
2019-02-19T08:00:25.407Z,23.60
2019-02-19T08:02:55.346Z,23.60
2019-02-19T08:05:26.038Z,23.60
2019-02-19T08:07:56.182Z,23.70
2019-02-19T08:10:26.126Z,23.80
2019-02-19T08:12:55.908Z,23.80
2019-02-19T08:15:25.777Z,23.80
2019-02-19T08:17:55.636Z,23.90
2019-02-19T08:20:25.428Z,23.90
2019-02-19T08:22:55.254Z,23.90
2019-02-19T08:25:25.122Z,24.00
2019-02-19T08:27:54.907Z,24.00
2019-02-19T08:30:24.726Z,24.10
2019-02-19T08:32:55.722Z,24.00
2019-02-19T08:35:26.090Z,24.00
2019-02-19T08:37:56.495Z,24.00
2019-02-19T08:40:26.473Z,24.10
2019-02-19T08:42:56.331Z,24.10
2019-02-19T08:45:26.134Z,24.10
2019-02-19T08:47:55.950Z,24.10
2019-02-19T08:50:25.824Z,24.10
2019-02-19T08:52:57.306Z,24.10
2019-02-19T08:55:27.451Z,24.10
2019-02-19T08:57:57.365Z,24.10
2019-02-19T09:00:27.562Z,24.10
2019-02-19T09:02:57.693Z,24.20
2019-02-19T09:05:28.195Z,24.10
2019-02-19T09:07:58.066Z,24.20
2019-02-19T09:10:27.963Z,24.20
2019-02-19T09:12:57.872Z,24.20
2019-02-19T09:15:29.425Z,24.20
2019-02-19T09:17:59.338Z,24.30
2019-02-19T09:20:29.386Z,24.30
2019-02-19T09:23:00.891Z,24.30
2019-02-19T09:25:30.827Z,24.40
2019-02-19T09:28:00.614Z,24.40
2019-02-19T09:30:30.617Z,24.40
2019-02-19T09:33:09.248Z,24.40
2019-02-19T09:35:40.175Z,24.50
2019-02-19T09:38:10.420Z,24.50
2019-02-19T09:40:40.816Z,24.50
2019-02-19T09:43:10.623Z,24.50
2019-02-19T09:45:40.474Z,24.40
2019-02-19T09:48:10.293Z,24.40
2019-02-19T09:50:40.305Z,24.40
2019-02-19T09:53:12.218Z,24.40
2019-02-19T09:55:43.796Z,24.40
2019-02-19T09:58:13.535Z,24.40
2019-02-19T10:00:43.427Z,24.40
2019-02-19T10:03:13.597Z,24.40
2019-02-19T10:05:43.474Z,24.40
2019-02-19T10:08:13.411Z,24.40
2019-02-19T10:10:45.561Z,24.40
2019-02-19T10:13:17.325Z,24.40
2019-02-19T10:15:47.230Z,24.40
2019-02-19T10:18:17.039Z,24.50
2019-02-19T10:20:46.867Z,24.50
2019-02-19T10:23:17.091Z,24.60
2019-02-19T10:25:47.251Z,24.60
2019-02-19T10:28:17.086Z,24.60
2019-02-19T10:30:47.174Z,24.60
2019-02-19T10:33:18.944Z,24.60
2019-02-19T10:35:48.752Z,24.70
2019-02-19T10:38:19.348Z,24.70
2019-02-19T10:40:49.140Z,24.70
2019-02-19T10:43:21.032Z,24.70
2019-02-19T10:45:51.101Z,24.70
2019-02-19T10:48:21.066Z,24.70
2019-02-19T10:50:50.966Z,24.70
2019-02-19T10:53:20.747Z,24.70
2019-02-19T10:55:50.532Z,24.70
2019-02-19T10:58:22.959Z,24.80
2019-02-19T11:00:51.943Z,24.80
2019-02-19T11:03:22.414Z,24.80
2019-02-19T11:05:52.243Z,24.80
2019-02-19T11:08:22.019Z,24.80
2019-02-19T11:10:52.463Z,24.80
2019-02-19T11:13:23.452Z,24.80
2019-02-19T11:15:53.274Z,24.70
2019-02-19T11:18:28.430Z,24.80
2019-02-19T11:20:54.975Z,24.80
2019-02-19T11:23:24.782Z,24.80
2019-02-19T11:25:54.582Z,24.70
2019-02-19T11:28:26.218Z,24.80
2019-02-19T11:30:56.266Z,24.90
2019-02-19T11:33:26.783Z,24.80
2019-02-19T11:35:56.917Z,24.80
2019-02-19T11:38:27.994Z,24.80
2019-02-19T11:40:57.786Z,24.80
2019-02-19T11:43:27.692Z,24.80
2019-02-19T11:45:58.021Z,24.80
2019-02-19T11:48:36.592Z,24.80
2019-02-19T11:51:00.139Z,24.80
2019-02-19T11:53:31.151Z,24.80
2019-02-19T11:56:02.162Z,24.80
2019-02-19T11:58:32.371Z,24.80
2019-02-19T12:01:03.317Z,24.80
2019-02-19T12:03:34.729Z,24.80
2019-02-19T12:06:04.977Z,24.80
2019-02-19T12:08:41.647Z,24.90
2019-02-19T12:11:16.730Z,24.90
2019-02-19T12:13:50.484Z,24.90
2019-02-19T12:16:22.025Z,24.90
2019-02-19T12:18:54.829Z,24.90
2019-02-19T12:21:29.327Z,24.90
2019-02-19T12:24:01.462Z,24.90
2019-02-19T12:26:33.582Z,24.90
2019-02-19T12:29:04.333Z,24.90
2019-02-19T12:31:35.325Z,24.90
2019-02-19T12:34:07.171Z,24.90
2019-02-19T12:36:39.116Z,25.00
2019-02-19T12:39:11.126Z,24.90
2019-02-19T12:41:41.083Z,24.90
2019-02-19T12:44:12.275Z,24.90
2019-02-19T12:46:43.411Z,24.90
2019-02-19T12:49:16.455Z,25.00
2019-02-19T12:51:48.162Z,25.00
2019-02-19T12:54:19.693Z,25.00
2019-02-19T12:56:51.061Z,25.00
2019-02-19T12:59:22.972Z,25.00
2019-02-19T13:01:53.996Z,25.00
2019-02-19T13:04:25.441Z,25.00
2019-02-19T13:06:59.660Z,25.10
2019-02-19T13:09:31.853Z,25.10
2019-02-19T13:12:04.500Z,25.10
2019-02-19T13:14:36.845Z,25.10
2019-02-19T13:17:08.081Z,25.00
2019-02-19T13:19:39.359Z,25.00
2019-02-19T13:22:10.956Z,24.90
2019-02-19T13:24:43.093Z,24.90
2019-02-19T13:27:34.319Z,24.10
2019-02-19T13:30:07.243Z,24.00
2019-02-19T13:32:39.406Z,24.00
2019-02-19T13:35:12.764Z,24.10
2019-02-19T13:37:44.513Z,24.20
2019-02-19T13:40:17.368Z,24.30
2019-02-19T13:42:52.488Z,24.40
2019-02-19T13:45:32.479Z,24.40
2019-02-19T13:48:06.184Z,24.50
2019-02-19T13:50:37.070Z,24.50
2019-02-19T13:53:25.578Z,24.60
2019-02-19T13:55:59.228Z,24.60
2019-02-19T13:58:31.096Z,24.70
2019-02-19T14:01:04.587Z,24.70
2019-02-19T14:03:35.882Z,24.70
2019-02-19T14:06:07.030Z,24.80
2019-02-19T14:08:38.589Z,24.80
2019-02-19T14:11:09.733Z,24.80
2019-02-19T14:13:45.372Z,24.80
2019-02-19T14:16:39.844Z,24.80
2019-02-19T14:19:30.257Z,24.90
2019-02-19T14:22:08.119Z,24.90
2019-02-19T14:24:57.087Z,24.90
2019-02-19T14:27:48.919Z,24.90
2019-02-19T14:30:41.418Z,24.90
2019-02-19T14:33:22.593Z,24.90
2019-02-19T14:36:04.002Z,24.90
2019-02-19T14:38:43.237Z,24.90
2019-02-19T14:41:38.282Z,24.90
2019-02-19T14:44:29.813Z,24.90
2019-02-19T14:47:14.515Z,24.90
2019-02-19T14:50:01.399Z,24.90
2019-02-19T14:52:49.282Z,24.90
2019-02-19T14:55:54.470Z,24.90
2019-02-19T14:58:42.596Z,24.40
2019-02-19T15:01:32.555Z,23.10
2019-02-19T15:04:27.246Z,22.70
2019-02-19T15:07:06.774Z,23.10
2019-02-19T15:10:04.599Z,23.40
2019-02-19T15:12:57.053Z,23.60
2019-02-19T15:15:38.332Z,23.80
2019-02-19T15:18:26.203Z,24.00
2019-02-19T15:21:27.434Z,24.00
2019-02-19T15:24:22.470Z,24.10
2019-02-19T15:27:03.931Z,24.20
2019-02-19T15:29:57.420Z,24.30
2019-02-19T15:33:03.082Z,24.40
2019-02-19T15:36:05.602Z,24.40
2019-02-19T15:38:59.715Z,24.60
2019-02-19T15:41:52.674Z,24.70
2019-02-19T15:44:50.894Z,24.80
2019-02-19T15:47:39.667Z,24.80
2019-02-19T15:50:38.046Z,24.90
2019-02-19T15:53:19.311Z,24.90
2019-02-19T15:56:17.207Z,24.90
2019-02-19T15:58:51.971Z,24.90
2019-02-19T16:01:41.907Z,24.90
2019-02-19T16:04:20.062Z,24.90
2019-02-19T16:07:02.471Z,24.90
2019-02-19T16:10:06.859Z,24.80
2019-02-19T16:13:04.405Z,24.80
2019-02-19T16:16:03.658Z,24.80
2019-02-19T16:18:55.965Z,24.80
2019-02-19T16:21:36.650Z,24.80
2019-02-19T16:24:14.590Z,24.80
2019-02-19T16:27:13.124Z,24.80
2019-02-19T16:30:14.342Z,24.80
2019-02-19T16:33:00.090Z,24.70
2019-02-19T16:35:45.786Z,24.70
2019-02-19T16:38:33.327Z,24.70
2019-02-19T16:41:28.273Z,24.70
2019-02-19T16:44:21.183Z,24.70
2019-02-19T16:47:10.077Z,24.60
2019-02-19T16:50:06.889Z,24.70
2019-02-19T16:52:49.780Z,24.70
2019-02-19T16:55:29.266Z,24.70
2019-02-19T16:58:05.888Z,24.60
2019-02-19T17:00:55.029Z,24.70
2019-02-19T17:03:55.487Z,24.60
2019-02-19T17:06:39.135Z,24.70
2019-02-19T17:09:15.744Z,24.70
2019-02-19T17:11:54.639Z,24.70
2019-02-19T17:14:42.511Z,24.60
2019-02-19T17:17:32.308Z,24.60
2019-02-19T17:20:28.957Z,24.60
2019-02-19T17:23:01.278Z,24.60
2019-02-19T17:25:37.710Z,24.60
2019-02-19T17:28:28.712Z,24.50
2019-02-19T17:31:17.456Z,24.50
2019-02-19T17:34:15.615Z,24.50
2019-02-19T17:36:56.218Z,24.50
2019-02-19T17:39:37.787Z,24.40
2019-02-19T17:42:22.879Z,24.40
2019-02-19T17:45:18.810Z,24.40
2019-02-19T17:48:05.959Z,24.40
2019-02-19T17:50:53.850Z,24.40
2019-02-19T17:53:37.187Z,24.40
2019-02-19T17:56:29.195Z,24.40
2019-02-19T17:59:12.559Z,24.40
2019-02-19T18:02:04.763Z,24.40
2019-02-19T18:04:41.769Z,24.40
2019-02-19T18:07:20.917Z,24.40
2019-02-19T18:10:44.408Z,24.30
2019-02-19T18:13:36.810Z,24.30
2019-02-19T18:16:24.319Z,24.30
2019-02-19T18:18:54.588Z,24.30
2019-02-19T18:21:24.515Z,24.30
2019-02-19T18:23:54.309Z,24.20
2019-02-19T18:26:24.186Z,24.20
2019-02-19T18:28:53.980Z,24.20
2019-02-19T18:31:23.776Z,24.20
2019-02-19T18:33:54.539Z,24.20
2019-02-19T18:36:26.604Z,24.20
2019-02-19T18:38:56.542Z,24.20
2019-02-19T18:41:26.324Z,24.10
2019-02-19T18:43:57.662Z,24.10
2019-02-19T18:46:27.464Z,24.10
2019-02-19T18:48:57.263Z,24.10
2019-02-19T18:51:28.226Z,24.10
2019-02-19T18:53:59.346Z,24.10
2019-02-19T18:56:30.358Z,24.10
2019-02-19T18:59:00.835Z,24.10
2019-02-19T19:01:30.614Z,24.10
2019-02-19T19:04:00.423Z,24.10
2019-02-19T19:06:30.188Z,24.10
2019-02-19T19:08:59.959Z,24.00
2019-02-19T19:11:29.802Z,24.00
2019-02-19T19:13:59.602Z,24.00
2019-02-19T19:16:29.357Z,24.00
2019-02-19T19:18:59.131Z,24.00
2019-02-19T19:21:28.975Z,24.00
2019-02-19T19:24:00.088Z,24.00
2019-02-19T19:26:30.012Z,24.00
2019-02-19T19:28:59.787Z,24.00
2019-02-19T19:31:33.553Z,24.00
2019-02-19T19:34:04.018Z,24.00
2019-02-19T19:36:33.799Z,24.00
2019-02-19T19:39:05.128Z,24.00
2019-02-19T19:41:34.914Z,23.90
2019-02-19T19:44:06.887Z,23.90
2019-02-19T19:46:36.658Z,23.90
2019-02-19T19:49:06.439Z,23.90
2019-02-19T19:51:36.226Z,23.90
2019-02-19T19:54:05.994Z,23.90
2019-02-19T19:56:37.475Z,23.90
2019-02-19T19:59:07.646Z,23.90
2019-02-19T20:01:37.430Z,23.90
2019-02-19T20:04:07.263Z,23.90
2019-02-19T20:06:37.034Z,23.90
2019-02-19T20:09:07.296Z,23.90
2019-02-19T20:11:37.101Z,23.90
2019-02-19T20:14:07.186Z,23.90
2019-02-19T20:16:36.960Z,23.80
2019-02-19T20:19:06.746Z,23.80
2019-02-19T20:21:36.511Z,23.80
2019-02-19T20:24:06.355Z,23.80
2019-02-19T20:26:36.171Z,23.80
2019-02-19T20:29:05.947Z,23.80
2019-02-19T20:31:35.735Z,23.80
2019-02-19T20:34:06.202Z,23.80
2019-02-19T20:36:39.498Z,23.80
2019-02-19T20:39:09.586Z,23.80
2019-02-19T20:41:39.368Z,23.80
2019-02-19T20:44:09.145Z,23.80
2019-02-19T20:46:40.481Z,23.80
2019-02-19T20:49:12.031Z,23.80
2019-02-19T20:51:41.816Z,23.80
2019-02-19T20:54:11.592Z,23.70
2019-02-19T20:56:41.378Z,23.70
2019-02-19T20:59:11.162Z,23.80
2019-02-19T21:01:41.005Z,23.70
2019-02-19T21:04:11.112Z,23.70
2019-02-19T21:06:41.157Z,23.70
2019-02-19T21:09:10.978Z,23.70
2019-02-19T21:11:40.825Z,23.70
2019-02-19T21:14:10.615Z,23.70
2019-02-19T21:16:40.402Z,23.70
2019-02-19T21:19:10.224Z,23.70
2019-02-19T21:21:45.020Z,23.70
2019-02-19T21:24:11.679Z,23.70
2019-02-19T21:26:41.451Z,23.70
2019-02-19T21:29:11.231Z,23.70
2019-02-19T21:31:42.428Z,23.60
2019-02-19T21:34:12.998Z,23.60
2019-02-19T21:36:42.788Z,23.60
2019-02-19T21:39:12.558Z,23.60
2019-02-19T21:41:44.542Z,23.60
2019-02-19T21:44:14.322Z,23.60
2019-02-19T21:46:45.394Z,23.60
2019-02-19T21:49:15.167Z,23.60
2019-02-19T21:51:53.719Z,23.60
2019-02-19T21:54:16.459Z,23.60
2019-02-19T21:56:46.282Z,23.60
2019-02-19T21:59:16.142Z,23.60
2019-02-19T22:01:46.518Z,23.60
2019-02-19T22:04:16.286Z,23.60
2019-02-19T22:06:46.058Z,23.50
2019-02-19T22:09:16.246Z,23.50
2019-02-19T22:11:46.028Z,23.50
2019-02-19T22:14:15.803Z,23.60
2019-02-19T22:16:45.591Z,23.50
2019-02-19T22:19:15.658Z,23.50
2019-02-19T22:21:50.715Z,23.60
2019-02-19T22:24:36.581Z,23.50
2019-02-19T22:27:07.567Z,23.50
2019-02-19T22:29:37.464Z,23.50
2019-02-19T22:32:09.090Z,23.50
2019-02-19T22:34:40.309Z,23.50
2019-02-19T22:37:10.154Z,23.50
2019-02-19T22:39:39.924Z,23.50
2019-02-19T22:42:09.694Z,23.50
2019-02-19T22:44:39.494Z,23.50
2019-02-19T22:47:09.666Z,23.50
2019-02-19T22:49:40.090Z,23.50
2019-02-19T22:52:12.660Z,23.50
2019-02-19T22:54:45.782Z,23.50
2019-02-19T22:57:15.691Z,23.40
2019-02-19T22:59:45.479Z,23.40
2019-02-19T23:02:18.650Z,23.50
2019-02-19T23:04:48.431Z,23.40
2019-02-19T23:07:18.251Z,23.50
2019-02-19T23:09:48.103Z,23.40
2019-02-19T23:12:17.889Z,23.40
2019-02-19T23:14:47.654Z,23.50
2019-02-19T23:17:17.447Z,23.50
2019-02-19T23:19:47.267Z,23.40
2019-02-19T23:22:21.696Z,23.50
2019-02-19T23:24:50.519Z,23.40
2019-02-19T23:27:21.428Z,23.50
2019-02-19T23:29:51.246Z,23.40
2019-02-19T23:32:22.363Z,23.40
2019-02-19T23:35:11.250Z,23.40
2019-02-19T23:37:41.110Z,23.40
2019-02-19T23:40:11.051Z,23.40
2019-02-19T23:42:40.821Z,23.40
2019-02-19T23:45:10.775Z,23.40
2019-02-19T23:47:42.534Z,23.40
2019-02-19T23:50:12.383Z,23.40
2019-02-19T23:52:42.249Z,23.40
2019-02-19T23:55:12.121Z,23.40
2019-02-19T23:57:41.882Z,23.40
